sensor_id;sensor_type;location;lat;lon;timestamp;pressure;altitude;pressure_sealevel;temperature;humidity
7754;BME280;3921;42.266;23.122;2023-07-29T00:01:44;94860.31;;;19.06;45.52
7754;BME280;3921;42.266;23.122;2023-07-29T00:04:11;95121.19;;;20.93;45.61
7754;BME280;3921;42.266;23.122;2023-07-29T00:06:42;95254.13;;;21.73;45.94
7754;BME280;3921;42.266;23.122;2023-07-29T00:09:11;94978.47;;;19.91;45.83
7754;BME280;3921;42.266;23.122;2023-07-29T00:11:41;94950.28;;;19.76;45.77
7754;BME280;3921;42.266;23.122;2023-07-29T00:14:11;94941.75;;;19.60;46.04
7754;BME280;3921;42.266;23.122;2023-07-29T00:16:39;94919.41;;;19.30;45.95
7754;BME280;3921;42.266;23.122;2023-07-29T00:33:05;94975.44;;;19.30;47.15
7754;BME280;3921;42.266;23.122;2023-07-29T00:35:32;94939.53;;;19.18;46.96
7754;BME280;3921;42.266;23.122;2023-07-29T00:38:00;94898.59;;;19.05;46.55
7754;BME280;3921;42.266;23.122;2023-07-29T00:40:31;95125.22;;;20.13;46.41
7754;BME280;3921;42.266;23.122;2023-07-29T00:43:05;94946.44;;;19.16;46.69
7754;BME280;3921;42.266;23.122;2023-07-29T00:45:52;95258.69;;;21.18;46.72
7754;BME280;3921;42.266;23.122;2023-07-29T00:48:43;94874.97;;;18.48;46.86
7754;BME280;3921;42.266;23.122;2023-07-29T00:51:25;94954.44;;;19.08;46.86
7754;BME280;3921;42.266;23.122;2023-07-29T00:53:59;94989.94;;;19.11;46.97
7754;BME280;3921;42.266;23.122;2023-07-29T00:56:26;95299.88;;;21.12;46.75
7754;BME280;3921;42.266;23.122;2023-07-29T00:58:54;94971.19;;;18.95;47.07
7754;BME280;3921;42.266;23.122;2023-07-29T01:01:25;94945.81;;;18.93;47.30
7754;BME280;3921;42.266;23.122;2023-07-29T01:03:54;95497.59;;;22.46;47.00
7754;BME280;3921;42.266;23.122;2023-07-29T01:06:41;95023.16;;;19.27;47.37
7754;BME280;3921;42.266;23.122;2023-07-29T01:09:35;94986.88;;;19.04;47.44
7754;BME280;3921;42.266;23.122;2023-07-29T01:12:27;95527.94;;;22.21;47.28
7754;BME280;3921;42.266;23.122;2023-07-29T01:15:03;94914.34;;;18.58;46.91
7754;BME280;3921;42.266;23.122;2023-07-29T01:17:43;94797.06;;;17.71;47.31
7754;BME280;3921;42.266;23.122;2023-07-29T01:20:16;94924.19;;;18.47;47.15
7754;BME280;3921;42.266;23.122;2023-07-29T01:22:46;94889.56;;;18.25;47.02
7754;BME280;3921;42.266;23.122;2023-07-29T01:25:34;94916.28;;;18.53;47.49
7754;BME280;3921;42.266;23.122;2023-07-29T01:28:15;95130.97;;;20.00;47.52
7754;BME280;3921;42.266;23.122;2023-07-29T01:30:43;94930.81;;;18.70;47.51
7754;BME280;3921;42.266;23.122;2023-07-29T01:33:16;94992.31;;;18.97;47.32
7754;BME280;3921;42.266;23.122;2023-07-29T01:35:47;94931.34;;;18.76;47.80
7754;BME280;3921;42.266;23.122;2023-07-29T01:38:18;95302.06;;;21.02;47.51
7754;BME280;3921;42.266;23.122;2023-07-29T01:40:48;94887.34;;;18.37;47.42
7754;BME280;3921;42.266;23.122;2023-07-29T01:43:16;94988.97;;;19.14;47.32
7754;BME280;3921;42.266;23.122;2023-07-29T01:45:48;95133.41;;;19.67;47.80
7754;BME280;3921;42.266;23.122;2023-07-29T01:48:16;94886.31;;;18.22;47.87
7754;BME280;3921;42.266;23.122;2023-07-29T01:50:46;95040.47;;;19.01;48.15
7754;BME280;3921;42.266;23.122;2023-07-29T01:53:13;94819.81;;;17.74;47.88
7754;BME280;3921;42.266;23.122;2023-07-29T01:55:41;94900.97;;;18.36;48.02
7754;BME280;3921;42.266;23.122;2023-07-29T01:58:11;95137.78;;;19.82;48.10
7754;BME280;3921;42.266;23.122;2023-07-29T02:00:39;94959.53;;;18.53;47.73
7754;BME280;3921;42.266;23.122;2023-07-29T02:03:07;94934.91;;;18.35;48.13
7754;BME280;3921;42.266;23.122;2023-07-29T02:05:40;95354.44;;;21.11;47.63
7754;BME280;3921;42.266;23.122;2023-07-29T02:08:10;94920.88;;;18.26;47.85
7754;BME280;3921;42.266;23.122;2023-07-29T02:10:42;95503.19;;;22.04;47.95
7754;BME280;3921;42.266;23.122;2023-07-29T02:13:13;94954.97;;;18.41;47.81
7754;BME280;3921;42.266;23.122;2023-07-29T02:15:41;94930.72;;;18.34;47.52
7754;BME280;3921;42.266;23.122;2023-07-29T02:18:08;95509.88;;;22.07;47.86
7754;BME280;3921;42.266;23.122;2023-07-29T02:20:36;94918.81;;;18.34;47.95
7754;BME280;3921;42.266;23.122;2023-07-29T02:23:05;95214.69;;;20.09;47.92
7754;BME280;3921;42.266;23.122;2023-07-29T02:25:37;94935.66;;;18.37;48.04
7754;BME280;3921;42.266;23.122;2023-07-29T02:28:05;95443.88;;;21.63;48.03
7754;BME280;3921;42.266;23.122;2023-07-29T02:30:35;95440.56;;;21.43;48.36
7754;BME280;3921;42.266;23.122;2023-07-29T02:33:03;94973.91;;;18.35;48.32
7754;BME280;3921;42.266;23.122;2023-07-29T02:35:44;94955.88;;;18.21;48.00
7754;BME280;3921;42.266;23.122;2023-07-29T02:38:24;95514.09;;;21.90;48.26
7754;BME280;3921;42.266;23.122;2023-07-29T02:41:08;94978.75;;;18.40;48.31
7754;BME280;3921;42.266;23.122;2023-07-29T02:43:38;95166.31;;;19.71;48.21
7754;BME280;3921;42.266;23.122;2023-07-29T02:46:39;94930.78;;;18.13;48.20
7754;BME280;3921;42.266;23.122;2023-07-29T02:51:58;95106.03;;;19.15;48.37
7754;BME280;3921;42.266;23.122;2023-07-29T02:54:26;94971.28;;;18.37;48.60
7754;BME280;3921;42.266;23.122;2023-07-29T02:56:58;94968.47;;;18.43;48.64
7754;BME280;3921;42.266;23.122;2023-07-29T02:59:26;94946.91;;;17.93;49.10
7754;BME280;3921;42.266;23.122;2023-07-29T03:02:11;95264.31;;;19.84;49.28
7754;BME280;3921;42.266;23.122;2023-07-29T03:04:42;95526.88;;;21.73;49.03
7754;BME280;3921;42.266;23.122;2023-07-29T03:07:19;94953.34;;;18.00;48.81
7754;BME280;3921;42.266;23.122;2023-07-29T03:09:48;94926.97;;;17.84;48.67
7754;BME280;3921;42.266;23.122;2023-07-29T03:12:16;94938.53;;;18.10;48.86
7754;BME280;3921;42.266;23.122;2023-07-29T03:14:47;95163.97;;;19.48;49.25
7754;BME280;3921;42.266;23.122;2023-07-29T03:17:22;95527.06;;;21.70;49.30
7754;BME280;3921;42.266;23.122;2023-07-29T03:19:50;95446.97;;;20.99;49.31
7754;BME280;3921;42.266;23.122;2023-07-29T03:22:20;95165.44;;;19.34;49.54
7754;BME280;3921;42.266;23.122;2023-07-29T03:24:53;95159.25;;;19.40;49.62
7754;BME280;3921;42.266;23.122;2023-07-29T03:27:23;94964.09;;;18.07;49.62
7754;BME280;3921;42.266;23.122;2023-07-29T03:29:50;94934.91;;;17.76;50.05
7754;BME280;3921;42.266;23.122;2023-07-29T03:32:19;94972.25;;;17.95;49.85
7754;BME280;3921;42.266;23.122;2023-07-29T03:34:47;95491.59;;;21.28;49.85
7754;BME280;3921;42.266;23.122;2023-07-29T03:37:14;95380.19;;;20.53;49.87
7754;BME280;3921;42.266;23.122;2023-07-29T03:39:42;95553.44;;;21.53;48.97
7754;BME280;3921;42.266;23.122;2023-07-29T03:42:09;95037.16;;;18.22;49.64
7754;BME280;3921;42.266;23.122;2023-07-29T03:44:36;95261.19;;;19.59;49.55
7754;BME280;3921;42.266;23.122;2023-07-29T03:47:05;95531.16;;;21.38;49.68
7754;BME280;3921;42.266;23.122;2023-07-29T03:49:35;94901.81;;;17.17;49.82
7754;BME280;3921;42.266;23.122;2023-07-29T03:52:05;95007.66;;;17.79;49.72
7754;BME280;3921;42.266;23.122;2023-07-29T03:54:33;95326.34;;;19.83;49.87
7754;BME280;3921;42.266;23.122;2023-07-29T03:57:02;94839.97;;;16.99;49.81
7754;BME280;3921;42.266;23.122;2023-07-29T03:59:31;95378.19;;;20.22;50.17
7754;BME280;3921;42.266;23.122;2023-07-29T04:01:58;95194.72;;;18.87;49.90
7754;BME280;3921;42.266;23.122;2023-07-29T04:04:25;95397.44;;;20.29;50.34
7754;BME280;3921;42.266;23.122;2023-07-29T04:06:54;94988.25;;;17.76;50.32
7754;BME280;3921;42.266;23.122;2023-07-29T04:09:22;95554.63;;;21.27;50.55
7754;BME280;3921;42.266;23.122;2023-07-29T04:11:50;95160.41;;;18.95;50.55
7754;BME280;3921;42.266;23.122;2023-07-29T04:14:17;95305.47;;;19.56;50.71
7754;BME280;3921;42.266;23.122;2023-07-29T04:16:44;95047.94;;;18.09;50.94
7754;BME280;3921;42.266;23.122;2023-07-29T04:19:11;95540.19;;;21.26;51.01
7754;BME280;3921;42.266;23.122;2023-07-29T04:21:38;95133.88;;;18.80;51.09
7754;BME280;3921;42.266;23.122;2023-07-29T04:24:07;95305.97;;;19.83;51.00
7754;BME280;3921;42.266;23.122;2023-07-29T04:26:34;95370.41;;;20.06;51.29
7754;BME280;3921;42.266;23.122;2023-07-29T04:29:01;95547.47;;;21.35;51.37
7754;BME280;3921;42.266;23.122;2023-07-29T04:32:09;95191.81;;;19.33;51.76
7754;BME280;3921;42.266;23.122;2023-07-29T04:34:33;94911.66;;;17.45;51.81
7754;BME280;3921;42.266;23.122;2023-07-29T04:37:00;95155.19;;;19.17;51.63
7754;BME280;3921;42.266;23.122;2023-07-29T04:39:28;95177.97;;;19.20;51.65
7754;BME280;3921;42.266;23.122;2023-07-29T04:41:55;95548.47;;;21.50;51.75
7754;BME280;3921;42.266;23.122;2023-07-29T04:44:22;94938.91;;;17.82;51.66
7754;BME280;3921;42.266;23.122;2023-07-29T04:46:49;95563.38;;;21.59;51.93
7754;BME280;3921;42.266;23.122;2023-07-29T04:49:16;95189.28;;;19.33;51.72
7754;BME280;3921;42.266;23.122;2023-07-29T04:51:43;95029.22;;;18.10;51.97
7754;BME280;3921;42.266;23.122;2023-07-29T04:54:10;95428.34;;;20.60;51.86
7754;BME280;3921;42.266;23.122;2023-07-29T04:56:38;95272.78;;;19.85;52.16
7754;BME280;3921;42.266;23.122;2023-07-29T04:59:05;95315.59;;;20.14;52.35
7754;BME280;3921;42.266;23.122;2023-07-29T05:01:33;95270.88;;;19.88;52.16
7754;BME280;3921;42.266;23.122;2023-07-29T05:04:00;95376.44;;;20.41;52.76
7754;BME280;3921;42.266;23.122;2023-07-29T05:06:27;95341.25;;;20.30;52.61
7754;BME280;3921;42.266;23.122;2023-07-29T05:08:54;95562.03;;;21.69;52.93
7754;BME280;3921;42.266;23.122;2023-07-29T05:11:21;95371.34;;;20.41;53.05
7754;BME280;3921;42.266;23.122;2023-07-29T05:13:52;95206.94;;;19.55;53.04
7754;BME280;3921;42.266;23.122;2023-07-29T05:16:19;95207.91;;;19.53;52.90
7754;BME280;3921;42.266;23.122;2023-07-29T05:18:45;95555.28;;;21.68;52.95
7754;BME280;3921;42.266;23.122;2023-07-29T05:21:13;95222.94;;;19.40;52.78
7754;BME280;3921;42.266;23.122;2023-07-29T05:23:45;95206.38;;;19.69;52.76
7754;BME280;3921;42.266;23.122;2023-07-29T05:26:12;95392.69;;;20.59;52.59
7754;BME280;3921;42.266;23.122;2023-07-29T05:28:39;95557.06;;;21.84;52.30
7754;BME280;3921;42.266;23.122;2023-07-29T05:31:09;95345.34;;;20.52;52.81
7754;BME280;3921;42.266;23.122;2023-07-29T05:33:36;95569.09;;;21.99;52.96
7754;BME280;3921;42.266;23.122;2023-07-29T05:36:05;95566.31;;;22.04;53.04
7754;BME280;3921;42.266;23.122;2023-07-29T05:38:32;94974.50;;;18.40;53.05
7754;BME280;3921;42.266;23.122;2023-07-29T05:40:59;95607.81;;;22.10;53.09
7754;BME280;3921;42.266;23.122;2023-07-29T05:43:40;95441.44;;;21.25;53.30
7754;BME280;3921;42.266;23.122;2023-07-29T05:46:42;95575.47;;;22.08;53.24
7754;BME280;3921;42.266;23.122;2023-07-29T05:49:08;95395.31;;;20.93;53.32
7754;BME280;3921;42.266;23.122;2023-07-29T05:51:35;95518.69;;;21.66;53.29
7754;BME280;3921;42.266;23.122;2023-07-29T05:54:02;95415.16;;;21.06;53.14
7754;BME280;3921;42.266;23.122;2023-07-29T05:56:29;95343.09;;;20.82;52.86
7754;BME280;3921;42.266;23.122;2023-07-29T05:58:57;95605.25;;;22.27;52.61
7754;BME280;3921;42.266;23.122;2023-07-29T06:01:24;95411.78;;;21.23;52.16
7754;BME280;3921;42.266;23.122;2023-07-29T06:04:00;95578.44;;;22.35;52.59
7754;BME280;3921;42.266;23.122;2023-07-29T06:06:27;95062.59;;;19.18;52.06
7754;BME280;3921;42.266;23.122;2023-07-29T06:08:54;95483.56;;;21.87;52.38
7754;BME280;3921;42.266;23.122;2023-07-29T06:11:21;95495.91;;;21.96;52.23
7754;BME280;3921;42.266;23.122;2023-07-29T06:13:48;95598.06;;;22.51;52.05
7754;BME280;3921;42.266;23.122;2023-07-29T06:16:15;95095.28;;;19.46;52.64
7754;BME280;3921;42.266;23.122;2023-07-29T06:18:41;95569.16;;;22.49;52.36
7754;BME280;3921;42.266;23.122;2023-07-29T06:21:10;95439.81;;;21.76;52.38
7754;BME280;3921;42.266;23.122;2023-07-29T06:23:42;95195.13;;;20.27;52.17
7754;BME280;3921;42.266;23.122;2023-07-29T06:26:09;95380.59;;;21.51;52.38
7754;BME280;3921;42.266;23.122;2023-07-29T06:28:36;95558.84;;;22.67;52.06
7754;BME280;3921;42.266;23.122;2023-07-29T06:31:03;95183.97;;;20.47;51.68
7754;BME280;3921;42.266;23.122;2023-07-29T06:33:30;95133.22;;;20.23;51.12
7754;BME280;3921;42.266;23.122;2023-07-29T06:35:57;95337.41;;;21.44;50.84
7754;BME280;3921;42.266;23.122;2023-07-29T06:38:25;95281.63;;;21.02;50.93
7754;BME280;3921;42.266;23.122;2023-07-29T06:40:55;94925.53;;;19.09;51.07
7754;BME280;3921;42.266;23.122;2023-07-29T06:43:22;95287.16;;;21.28;51.29
7754;BME280;3921;42.266;23.122;2023-07-29T06:45:49;95147.66;;;20.59;50.82
7754;BME280;3921;42.266;23.122;2023-07-29T06:48:22;95082.91;;;20.09;50.28
7754;BME280;3921;42.266;23.122;2023-07-29T06:50:49;95013.56;;;19.68;50.51
7754;BME280;3921;42.266;23.122;2023-07-29T06:53:17;94992.69;;;19.77;50.29
7754;BME280;3921;42.266;23.122;2023-07-29T06:55:46;94953.03;;;19.54;49.99
7754;BME280;3921;42.266;23.122;2023-07-29T06:58:13;95360.31;;;21.96;49.71
7754;BME280;3921;42.266;23.122;2023-07-29T07:00:39;95319.44;;;21.95;49.74
7754;BME280;3921;42.266;23.122;2023-07-29T07:03:06;94864.13;;;18.98;49.35
7754;BME280;3921;42.266;23.122;2023-07-29T07:05:33;95298.25;;;21.93;48.78
7754;BME280;3921;42.266;23.122;2023-07-29T07:08:00;95453.75;;;22.84;49.33
7754;BME280;3921;42.266;23.122;2023-07-29T07:10:27;95558.91;;;23.46;48.95
7754;BME280;3921;42.266;23.122;2023-07-29T07:12:56;95494.97;;;23.27;49.23
7754;BME280;3921;42.266;23.122;2023-07-29T07:15:23;95517.44;;;23.53;48.95
7754;BME280;3921;42.266;23.122;2023-07-29T07:17:50;95248.84;;;21.77;49.36
7754;BME280;3921;42.266;23.122;2023-07-29T07:20:17;94941.19;;;19.88;49.19
7754;BME280;3921;42.266;23.122;2023-07-29T07:22:47;94960.56;;;20.24;49.43
7754;BME280;3921;42.266;23.122;2023-07-29T07:25:15;94978.44;;;20.24;49.26
7754;BME280;3921;42.266;23.122;2023-07-29T07:27:43;95039.31;;;20.64;49.37
7754;BME280;3921;42.266;23.122;2023-07-29T07:30:12;95351.91;;;22.58;49.80
7754;BME280;3921;42.266;23.122;2023-07-29T07:32:39;94992.44;;;20.50;49.46
7754;BME280;3921;42.266;23.122;2023-07-29T07:35:06;95507.28;;;23.82;49.48
7754;BME280;3921;42.266;23.122;2023-07-29T07:37:33;94971.56;;;20.41;49.44
7754;BME280;3921;42.266;23.122;2023-07-29T07:40:00;95161.97;;;21.75;49.53
7754;BME280;3921;42.266;23.122;2023-07-29T07:42:27;95293.34;;;22.67;49.48
7754;BME280;3921;42.266;23.122;2023-07-29T07:44:54;95198.91;;;22.17;49.36
7754;BME280;3921;42.266;23.122;2023-07-29T07:47:23;94972.19;;;20.78;49.66
7754;BME280;3921;42.266;23.122;2023-07-29T07:49:49;95522.31;;;24.02;49.51
7754;BME280;3921;42.266;23.122;2023-07-29T07:52:16;95495.66;;;24.05;49.68
7754;BME280;3921;42.266;23.122;2023-07-29T07:54:43;95284.69;;;22.84;49.38
7754;BME280;3921;42.266;23.122;2023-07-29T07:57:10;95080.84;;;21.63;49.13
7754;BME280;3921;42.266;23.122;2023-07-29T07:59:37;94960.97;;;20.97;48.94
7754;BME280;3921;42.266;23.122;2023-07-29T08:02:05;95430.88;;;23.87;48.91
7754;BME280;3921;42.266;23.122;2023-07-29T08:04:33;95165.13;;;22.26;49.04
7754;BME280;3921;42.266;23.122;2023-07-29T08:07:00;95377.09;;;23.41;49.06
7754;BME280;3921;42.266;23.122;2023-07-29T08:09:42;95300.06;;;23.14;48.70
7754;BME280;3921;42.266;23.122;2023-07-29T08:12:13;95202.34;;;22.32;48.54
7754;BME280;3921;42.266;23.122;2023-07-29T08:14:40;94900.13;;;20.73;47.84
7754;BME280;3921;42.266;23.122;2023-07-29T08:17:07;95020.91;;;21.53;47.63
7754;BME280;3921;42.266;23.122;2023-07-29T08:19:36;95271.88;;;23.14;47.49
7754;BME280;3921;42.266;23.122;2023-07-29T08:22:03;95503.50;;;24.46;47.63
7754;BME280;3921;42.266;23.122;2023-07-29T08:24:30;95034.13;;;21.75;47.18
7754;BME280;3921;42.266;23.122;2023-07-29T08:26:57;95184.75;;;22.70;47.32
7754;BME280;3921;42.266;23.122;2023-07-29T08:29:23;95344.19;;;23.64;47.34
7754;BME280;3921;42.266;23.122;2023-07-29T08:31:50;95516.16;;;24.63;47.58
7754;BME280;3921;42.266;23.122;2023-07-29T08:34:18;94973.03;;;21.40;46.87
7754;BME280;3921;42.266;23.122;2023-07-29T08:36:46;94996.66;;;21.44;47.18
7754;BME280;3921;42.266;23.122;2023-07-29T08:39:13;95161.00;;;22.68;47.11
7754;BME280;3921;42.266;23.122;2023-07-29T08:41:46;95442.56;;;24.62;47.31
7754;BME280;3921;42.266;23.122;2023-07-29T08:44:21;95293.06;;;23.75;47.43
7754;BME280;3921;42.266;23.122;2023-07-29T08:46:49;95473.88;;;24.96;47.21
7754;BME280;3921;42.266;23.122;2023-07-29T08:49:16;95464.31;;;24.98;47.36
7754;BME280;3921;42.266;23.122;2023-07-29T08:51:46;94976.69;;;21.81;47.11
7754;BME280;3921;42.266;23.122;2023-07-29T08:54:15;95072.63;;;22.46;46.83
7754;BME280;3921;42.266;23.122;2023-07-29T08:56:44;95486.69;;;25.10;46.76
7754;BME280;3921;42.266;23.122;2023-07-29T08:59:15;95095.25;;;22.83;47.10
7754;BME280;3921;42.266;23.122;2023-07-29T09:01:43;95145.13;;;23.05;46.70
7754;BME280;3921;42.266;23.122;2023-07-29T09:04:10;95455.97;;;25.22;46.56
7754;BME280;3921;42.266;23.122;2023-07-29T09:06:38;95105.50;;;23.11;46.23
7754;BME280;3921;42.266;23.122;2023-07-29T09:09:09;95034.97;;;22.77;46.31
7754;BME280;3921;42.266;23.122;2023-07-29T09:11:36;94885.09;;;21.87;46.03
7754;BME280;3921;42.266;23.122;2023-07-29T09:14:03;95409.69;;;25.22;45.08
7754;BME280;3921;42.266;23.122;2023-07-29T09:16:32;95451.09;;;25.44;44.38
7754;BME280;3921;42.266;23.122;2023-07-29T09:19:02;95133.06;;;23.63;43.52
7754;BME280;3921;42.266;23.122;2023-07-29T09:21:29;94882.81;;;22.11;44.44
7754;BME280;3921;42.266;23.122;2023-07-29T09:23:56;95073.00;;;23.39;44.06
7754;BME280;3921;42.266;23.122;2023-07-29T09:26:26;95419.13;;;25.48;43.22
7754;BME280;3921;42.266;23.122;2023-07-29T09:28:55;94923.13;;;22.63;43.19
7754;BME280;3921;42.266;23.122;2023-07-29T09:31:24;95426.78;;;25.88;43.47
7754;BME280;3921;42.266;23.122;2023-07-29T09:33:56;95298.00;;;25.13;42.79
7754;BME280;3921;42.266;23.122;2023-07-29T09:36:26;94891.09;;;22.70;42.93
7754;BME280;3921;42.266;23.122;2023-07-29T09:38:55;95259.19;;;25.03;43.04
7754;BME280;3921;42.266;23.122;2023-07-29T09:41:24;95379.63;;;25.87;43.10
7754;BME280;3921;42.266;23.122;2023-07-29T09:43:58;95418.03;;;26.16;42.95
7754;BME280;3921;42.266;23.122;2023-07-29T09:46:33;94891.47;;;23.05;43.22
7754;BME280;3921;42.266;23.122;2023-07-29T09:49:02;95282.38;;;25.29;42.99
7754;BME280;3921;42.266;23.122;2023-07-29T09:51:29;94753.97;;;22.39;42.88
7754;BME280;3921;42.266;23.122;2023-07-29T09:53:56;94819.34;;;22.85;42.75
7754;BME280;3921;42.266;23.122;2023-07-29T09:56:26;95075.66;;;24.56;42.52
7754;BME280;3921;42.266;23.122;2023-07-29T09:58:55;95035.69;;;24.27;41.90
7754;BME280;3921;42.266;23.122;2023-07-29T10:01:22;95415.19;;;26.81;42.22
7754;BME280;3921;42.266;23.122;2023-07-29T10:03:50;95397.34;;;26.78;41.95
7754;BME280;3921;42.266;23.122;2023-07-29T10:06:17;95413.41;;;27.06;40.79
7754;BME280;3921;42.266;23.122;2023-07-29T10:08:45;94898.72;;;24.02;40.13
7754;BME280;3921;42.266;23.122;2023-07-29T10:11:12;95078.47;;;25.39;39.39
7754;BME280;3921;42.266;23.122;2023-07-29T10:13:40;95175.16;;;26.15;38.37
7754;BME280;3921;42.266;23.122;2023-07-29T10:16:07;95064.25;;;25.47;39.25
7754;BME280;3921;42.266;23.122;2023-07-29T10:18:35;95107.25;;;25.81;38.59
7754;BME280;3921;42.266;23.122;2023-07-29T10:21:02;94851.06;;;24.60;37.92
7754;BME280;3921;42.266;23.122;2023-07-29T10:23:38;94996.41;;;25.36;37.44
7754;BME280;3921;42.266;23.122;2023-07-29T10:26:10;95155.19;;;26.77;36.84
7754;BME280;3921;42.266;23.122;2023-07-29T10:28:41;95285.28;;;27.75;37.19
7754;BME280;3921;42.266;23.122;2023-07-29T10:31:12;94878.88;;;25.14;37.64
7754;BME280;3921;42.266;23.122;2023-07-29T10:33:40;95355.78;;;28.43;38.02
7754;BME280;3921;42.266;23.122;2023-07-29T10:36:08;95051.75;;;26.59;36.99
7754;BME280;3921;42.266;23.122;2023-07-29T10:38:35;94810.19;;;25.28;36.90
7754;BME280;3921;42.266;23.122;2023-07-29T10:41:02;95038.25;;;26.78;36.68
7754;BME280;3921;42.266;23.122;2023-07-29T10:43:33;94899.50;;;25.94;36.41
7754;BME280;3921;42.266;23.122;2023-07-29T10:46:16;94762.38;;;25.14;36.24
7754;BME280;3921;42.266;23.122;2023-07-29T10:48:51;94979.25;;;26.63;36.00
7754;BME280;3921;42.266;23.122;2023-07-29T10:51:28;95181.78;;;28.21;35.38
7754;BME280;3921;42.266;23.122;2023-07-29T10:53:57;94949.09;;;26.86;35.65
7754;BME280;3921;42.266;23.122;2023-07-29T10:56:28;95325.41;;;29.41;35.24
7754;BME280;3921;42.266;23.122;2023-07-29T10:58:56;95332.81;;;29.46;36.47
7754;BME280;3921;42.266;23.122;2023-07-29T11:01:29;95355.59;;;29.52;36.00
7754;BME280;3921;42.266;23.122;2023-07-29T11:07:23;94848.75;;;26.73;34.60
7754;BME280;3921;42.266;23.122;2023-07-29T11:09:59;95084.63;;;28.30;34.68
7754;BME280;3921;42.266;23.122;2023-07-29T11:12:36;94939.63;;;27.51;33.65
7754;BME280;3921;42.266;23.122;2023-07-29T11:15:13;95172.19;;;29.07;33.68
7754;BME280;3921;42.266;23.122;2023-07-29T11:17:43;94953.13;;;27.75;33.85
7754;BME280;3921;42.266;23.122;2023-07-29T11:20:12;94861.53;;;27.28;33.98
7754;BME280;3921;42.266;23.122;2023-07-29T11:22:41;94926.56;;;27.85;31.66
7754;BME280;3921;42.266;23.122;2023-07-29T11:25:10;94837.66;;;27.57;31.10
7754;BME280;3921;42.266;23.122;2023-07-29T11:27:38;94865.38;;;27.75;31.53
7754;BME280;3921;42.266;23.122;2023-07-29T11:30:07;94859.28;;;27.76;31.96
7754;BME280;3921;42.266;23.122;2023-07-29T11:32:35;95246.97;;;30.11;31.49
7754;BME280;3921;42.266;23.122;2023-07-29T11:35:08;94927.78;;;28.42;29.98
7754;BME280;3921;42.266;23.122;2023-07-29T11:37:39;94779.84;;;27.59;29.90
7754;BME280;3921;42.266;23.122;2023-07-29T11:40:09;94833.28;;;28.09;29.29
7754;BME280;3921;42.266;23.122;2023-07-29T11:42:37;95101.16;;;29.90;28.68
7754;BME280;3921;42.266;23.122;2023-07-29T11:45:22;95127.88;;;30.10;29.73
7754;BME280;3921;42.266;23.122;2023-07-29T11:48:01;94793.59;;;28.00;30.00
7754;BME280;3921;42.266;23.122;2023-07-29T11:50:29;94973.16;;;29.15;30.26
7754;BME280;3921;42.266;23.122;2023-07-29T11:52:59;95277.78;;;31.31;29.64
7754;BME280;3921;42.266;23.122;2023-07-29T11:55:27;95112.06;;;30.32;27.57
7754;BME280;3921;42.266;23.122;2023-07-29T11:57:57;95177.44;;;31.02;26.75
7754;BME280;3921;42.266;23.122;2023-07-29T12:00:25;94806.22;;;28.72;26.64
7754;BME280;3921;42.266;23.122;2023-07-29T12:02:53;94971.13;;;29.86;26.78
7754;BME280;3921;42.266;23.122;2023-07-29T12:05:22;95256.16;;;31.77;27.34
7754;BME280;3921;42.266;23.122;2023-07-29T12:07:58;95264.38;;;31.82;26.57
7754;BME280;3921;42.266;23.122;2023-07-29T12:10:25;94765.41;;;28.66;26.18
7754;BME280;3921;42.266;23.122;2023-07-29T12:12:53;94905.31;;;29.79;25.60
7754;BME280;3921;42.266;23.122;2023-07-29T12:15:27;95056.03;;;30.78;25.09
7754;BME280;3921;42.266;23.122;2023-07-29T12:18:04;95157.88;;;31.55;25.23
7754;BME280;3921;42.266;23.122;2023-07-29T12:20:32;95007.63;;;30.69;25.01
7754;BME280;3921;42.266;23.122;2023-07-29T12:23:05;94789.69;;;29.41;25.46
7754;BME280;3921;42.266;23.122;2023-07-29T12:25:35;94830.13;;;29.71;25.58
7754;BME280;3921;42.266;23.122;2023-07-29T12:28:05;95255.31;;;32.41;25.03
7754;BME280;3921;42.266;23.122;2023-07-29T12:30:41;94763.56;;;29.44;24.99
7754;BME280;3921;42.266;23.122;2023-07-29T12:33:11;94779.75;;;29.56;24.72
7754;BME280;3921;42.266;23.122;2023-07-29T12:35:41;94817.19;;;29.99;25.39
7754;BME280;3921;42.266;23.122;2023-07-29T12:38:26;94736.16;;;29.51;25.89
7754;BME280;3921;42.266;23.122;2023-07-29T12:40:57;95097.47;;;31.80;25.32
7754;BME280;3921;42.266;23.122;2023-07-29T12:43:25;94810.56;;;30.24;26.73
7754;BME280;3921;42.266;23.122;2023-07-29T12:45:58;94826.53;;;30.19;26.54
7754;BME280;3921;42.266;23.122;2023-07-29T12:48:25;94934.16;;;31.14;25.10
7754;BME280;3921;42.266;23.122;2023-07-29T12:50:52;94788.91;;;30.15;25.58
7754;BME280;3921;42.266;23.122;2023-07-29T12:53:22;95248.09;;;33.15;24.40
7754;BME280;3921;42.266;23.122;2023-07-29T12:55:49;94801.31;;;30.39;24.87
7754;BME280;3921;42.266;23.122;2023-07-29T12:58:19;95243.31;;;33.28;24.54
7754;BME280;3921;42.266;23.122;2023-07-29T13:00:46;95139.78;;;32.70;25.23
7754;BME280;3921;42.266;23.122;2023-07-29T13:03:13;94858.81;;;30.98;25.44
7754;BME280;3921;42.266;23.122;2023-07-29T13:05:40;94758.59;;;30.25;25.41
7754;BME280;3921;42.266;23.122;2023-07-29T13:08:07;95234.63;;;33.45;25.62
7754;BME280;3921;42.266;23.122;2023-07-29T13:10:43;94858.34;;;31.02;24.89
7754;BME280;3921;42.266;23.122;2023-07-29T13:13:13;94760.91;;;30.46;25.14
7754;BME280;3921;42.266;23.122;2023-07-29T13:15:40;95228.09;;;33.41;25.12
7754;BME280;3921;42.266;23.122;2023-07-29T13:18:11;94873.19;;;31.10;25.57
7754;BME280;3921;42.266;23.122;2023-07-29T13:20:38;95242.50;;;33.36;25.78
7754;BME280;3921;42.266;23.122;2023-07-29T13:23:08;94838.88;;;30.53;25.97
7754;BME280;3921;42.266;23.122;2023-07-29T13:25:49;95062.44;;;31.84;25.75
7754;BME280;3921;42.266;23.122;2023-07-29T13:28:18;95115.47;;;31.82;25.84
7754;BME280;3921;42.266;23.122;2023-07-29T13:30:48;94990.00;;;31.00;26.46
7754;BME280;3921;42.266;23.122;2023-07-29T13:33:17;94774.03;;;29.52;27.06
7754;BME280;3921;42.266;23.122;2023-07-29T13:35:44;94715.47;;;28.95;27.05
7754;BME280;3921;42.266;23.122;2023-07-29T13:38:11;95230.09;;;32.24;26.97
7754;BME280;3921;42.266;23.122;2023-07-29T13:40:43;94920.34;;;30.23;27.02
7754;BME280;3921;42.266;23.122;2023-07-29T13:43:10;94761.47;;;29.01;27.46
7754;BME280;3921;42.266;23.122;2023-07-29T13:45:49;94660.31;;;28.38;27.94